createdAt,value
2019-04-05T00:01:03.866Z,95401.59
2019-04-05T00:03:35.642Z,95397.48
2019-04-05T00:06:07.413Z,95396.06
2019-04-05T00:08:39.282Z,95387.77
2019-04-05T00:11:11.718Z,95375.72
2019-04-05T00:13:43.591Z,95374.42
2019-04-05T00:16:15.645Z,95375.24
2019-04-05T00:18:47.720Z,95366.27
2019-04-05T00:21:19.515Z,95359.76
2019-04-05T00:23:51.223Z,95361.27
2019-04-05T00:26:22.911Z,95357.50
2019-04-05T00:28:55.064Z,95361.14
2019-04-05T00:31:26.805Z,95353.73
2019-04-05T00:33:59.563Z,95352.50
2019-04-05T00:36:31.648Z,95351.89
2019-04-05T00:39:04.065Z,95357.09
2019-04-05T00:41:36.390Z,95360.66
2019-04-05T00:44:08.229Z,95358.12
2019-04-05T00:46:40.018Z,95355.38
2019-04-05T00:49:11.719Z,95360.73
2019-04-05T00:51:43.849Z,95361.69
2019-04-05T00:54:15.914Z,95365.44
2019-04-05T00:56:47.773Z,95370.80
2019-04-05T00:59:19.635Z,95368.19
2019-04-05T01:01:51.754Z,95364.90
2019-04-05T01:04:23.795Z,95368.46
2019-04-05T01:06:55.636Z,95367.20
2019-04-05T01:09:27.434Z,95370.38
2019-04-05T01:11:59.216Z,95376.11
2019-04-05T01:14:31.110Z,95379.08
2019-04-05T01:17:02.869Z,95377.16
2019-04-05T01:19:36.556Z,95380.59
2019-04-05T01:22:10.643Z,95376.95
2019-04-05T01:24:42.921Z,95372.43
2019-04-05T01:27:15.516Z,95378.31
2019-04-05T01:29:47.379Z,95375.70
2019-04-05T01:32:20.070Z,95381.19
2019-04-05T01:34:51.864Z,95380.33
2019-04-05T01:37:24.209Z,95375.35
2019-04-05T01:39:56.062Z,95383.32
2019-04-05T01:42:28.109Z,95382.84
2019-04-05T01:45:00.295Z,95383.19
2019-04-05T01:47:32.116Z,95387.69
2019-04-05T01:50:06.159Z,95383.72
2019-04-05T01:52:38.221Z,95391.55
2019-04-05T01:55:10.157Z,95387.42
2019-04-05T01:57:41.922Z,95392.16
2019-04-05T02:00:14.595Z,95395.31
2019-04-05T02:02:46.590Z,95394.89
2019-04-05T02:05:18.611Z,95396.73
2019-04-05T02:07:50.695Z,95401.08
2019-04-05T02:10:22.875Z,95394.95
2019-04-05T02:12:54.863Z,95393.23
2019-04-05T02:15:32.055Z,95399.64
2019-04-05T02:18:03.888Z,95389.77
2019-04-05T02:20:35.847Z,95389.81
2019-04-05T02:23:07.618Z,95391.38
2019-04-05T02:25:39.480Z,95390.23
2019-04-05T02:28:12.024Z,95388.92
2019-04-05T02:30:43.923Z,95383.45
2019-04-05T02:33:16.608Z,95386.72
2019-04-05T02:35:48.553Z,95385.02
2019-04-05T02:38:20.328Z,95385.04
2019-04-05T02:40:53.472Z,95379.55
2019-04-05T02:43:28.258Z,95386.66
2019-04-05T02:46:01.095Z,95387.27
2019-04-05T02:48:35.959Z,95392.97
2019-04-05T02:51:10.163Z,95385.21
2019-04-05T02:53:42.644Z,95389.17
2019-04-05T02:56:14.920Z,95385.64
2019-04-05T02:58:47.450Z,95380.44
2019-04-05T03:01:22.623Z,95378.50
2019-04-05T03:03:53.276Z,95384.95
2019-04-05T03:06:25.538Z,95386.95
2019-04-05T03:08:58.113Z,95391.58
2019-04-05T03:11:33.825Z,95395.05
2019-04-05T03:14:06.521Z,95389.11
2019-04-05T03:16:42.390Z,95391.50
2019-04-05T03:19:22.705Z,95393.28
2019-04-05T03:22:02.183Z,95400.17
2019-04-05T03:24:37.373Z,95404.39
2019-04-05T03:27:17.452Z,95407.11
2019-04-05T03:29:49.471Z,95404.89
2019-04-05T03:32:21.464Z,95405.55
2019-04-05T03:34:54.261Z,95396.27
2019-04-05T03:37:26.742Z,95395.95
2019-04-05T03:39:58.789Z,95398.66
2019-04-05T03:42:32.112Z,95397.06
2019-04-05T03:45:04.153Z,95407.16
2019-04-05T03:47:36.123Z,95404.52
2019-04-05T03:50:09.172Z,95403.73
2019-04-05T03:52:41.656Z,95406.59
2019-04-05T03:55:13.841Z,95409.06
2019-04-05T03:57:45.999Z,95407.40
2019-04-05T04:00:17.968Z,95405.80
2019-04-05T04:02:50.270Z,95409.66
2019-04-05T04:05:22.331Z,95408.89
2019-04-05T04:07:54.389Z,95412.58
2019-04-05T04:10:28.657Z,95414.72
2019-04-05T04:13:00.747Z,95420.60
2019-04-05T04:15:34.909Z,95424.41
2019-04-05T04:18:07.756Z,95429.43
2019-04-05T04:20:48.668Z,95430.89
2019-04-05T04:23:21.946Z,95431.76
2019-04-05T04:25:55.328Z,95429.11
2019-04-05T04:28:27.755Z,95429.38
2019-04-05T04:31:00.065Z,95430.34
2019-04-05T04:33:32.060Z,95432.57
2019-04-05T04:36:04.178Z,95428.98
2019-04-05T04:38:36.078Z,95421.32
2019-04-05T04:41:08.861Z,95429.29
2019-04-05T04:43:41.132Z,95425.69
2019-04-05T04:46:13.523Z,95425.92
2019-04-05T04:48:46.478Z,95429.66
2019-04-05T04:51:19.379Z,95422.34
2019-04-05T04:53:52.419Z,95419.87
2019-04-05T04:56:24.875Z,95416.59
2019-04-05T04:58:56.898Z,95416.72
2019-04-05T05:01:29.078Z,95418.84
2019-04-05T05:04:01.014Z,95422.79
2019-04-05T05:06:32.915Z,95433.47
2019-04-05T05:09:07.641Z,95438.47
2019-04-05T05:11:39.736Z,95442.59
2019-04-05T05:14:12.098Z,95446.52
2019-04-05T05:16:44.653Z,95437.39
2019-04-05T05:19:16.552Z,95437.44
2019-04-05T05:21:49.615Z,95429.92
2019-04-05T05:24:22.040Z,95431.83
2019-04-05T05:26:53.859Z,95435.13
2019-04-05T05:29:25.948Z,95430.27
2019-04-05T05:31:57.865Z,95436.67
2019-04-05T05:34:29.742Z,95429.85
2019-04-05T05:37:01.631Z,95434.55
2019-04-05T05:39:33.436Z,95435.45
2019-04-05T05:42:05.345Z,95437.97
2019-04-05T05:44:37.185Z,95436.98
2019-04-05T05:47:09.083Z,95437.66
2019-04-05T05:49:40.975Z,95435.31
2019-04-05T05:52:12.895Z,95447.47
2019-04-05T05:54:44.631Z,95452.96
2019-04-05T05:57:16.458Z,95457.09
2019-04-05T05:59:48.227Z,95463.36
2019-04-05T06:02:20.031Z,95451.69
2019-04-05T06:04:51.790Z,95453.51
2019-04-05T06:07:23.547Z,95439.27
2019-04-05T06:09:55.295Z,95442.86
2019-04-05T06:12:27.106Z,95439.66
2019-04-05T06:14:58.849Z,95445.10
2019-04-05T06:17:30.658Z,95454.05
2019-04-05T06:20:02.872Z,95447.80
2019-04-05T06:22:35.261Z,95451.69
2019-04-05T06:25:07.575Z,95445.63
2019-04-05T06:27:39.321Z,95441.66
2019-04-05T06:30:11.752Z,95432.05
2019-04-05T06:32:43.644Z,95433.08
2019-04-05T06:35:15.547Z,95433.45
2019-04-05T06:37:47.296Z,95425.27
2019-04-05T06:40:19.178Z,95430.28
2019-04-05T06:42:50.919Z,95429.13
2019-04-05T06:45:22.817Z,95431.97
2019-04-05T06:47:54.640Z,95427.06
2019-04-05T06:50:26.382Z,95431.32
2019-04-05T06:52:58.569Z,95432.19
2019-04-05T06:55:30.313Z,95433.83
2019-04-05T06:58:02.054Z,95431.25
2019-04-05T07:00:33.784Z,95439.59
2019-04-05T07:03:05.668Z,95434.89
2019-04-05T07:05:37.559Z,95442.14
2019-04-05T07:08:09.316Z,95447.20
2019-04-05T07:10:41.365Z,95445.05
2019-04-05T07:13:13.093Z,95441.53
2019-04-05T07:15:44.897Z,95444.67
2019-04-05T07:18:16.945Z,95444.31
2019-04-05T07:20:49.226Z,95440.88
2019-04-05T07:23:21.069Z,95433.39
2019-04-05T07:25:52.875Z,95438.93
2019-04-05T07:28:25.231Z,95442.09
2019-04-05T07:30:57.131Z,95438.52
2019-04-05T07:33:29.186Z,95431.77
2019-04-05T07:36:03.370Z,95439.29
2019-04-05T07:38:34.339Z,95442.33
2019-04-05T07:41:06.170Z,95450.45
2019-04-05T07:43:38.001Z,95446.42
2019-04-05T07:46:09.745Z,95446.12
2019-04-05T07:48:45.023Z,95449.13
2019-04-05T07:51:15.434Z,95446.00
2019-04-05T07:53:47.179Z,95443.44
2019-04-05T07:56:18.906Z,95442.78
2019-04-05T07:58:50.715Z,95443.19
2019-04-05T08:01:23.671Z,95443.06
2019-04-05T08:03:58.025Z,95440.45
2019-04-05T08:06:30.481Z,95442.27
2019-04-05T08:09:14.075Z,95443.56
2019-04-05T08:11:46.651Z,95451.91
2019-04-05T08:14:19.788Z,95455.05
2019-04-05T08:16:51.764Z,95460.47
2019-04-05T08:19:23.661Z,95462.39
2019-04-05T08:21:55.469Z,95461.98
2019-04-05T08:24:27.607Z,95460.18
2019-04-05T08:26:59.512Z,95463.14
2019-04-05T08:29:31.349Z,95467.11
2019-04-05T08:32:13.998Z,95467.11
2019-04-05T08:34:36.683Z,95468.36
2019-04-05T08:37:08.500Z,95470.62
2019-04-05T08:39:40.231Z,95470.71
2019-04-05T08:42:12.064Z,95477.89
2019-04-05T08:44:43.874Z,95483.64
2019-04-05T08:47:15.812Z,95490.63
2019-04-05T08:49:47.663Z,95494.08
2019-04-05T08:52:19.402Z,95492.66
2019-04-05T08:54:51.146Z,95491.73
2019-04-05T08:57:22.884Z,95489.82
2019-04-05T08:59:54.634Z,95492.44
2019-04-05T09:02:26.348Z,95491.13
2019-04-05T09:04:58.262Z,95492.77
2019-04-05T09:07:29.990Z,95491.13
2019-04-05T09:10:01.755Z,95484.62
2019-04-05T09:12:33.777Z,95482.05
2019-04-05T09:15:05.931Z,95483.06
2019-04-05T09:17:37.740Z,95481.14
2019-04-05T09:20:09.641Z,95480.18
2019-04-05T09:22:41.360Z,95482.16
2019-04-05T09:25:13.188Z,95478.73
2019-04-05T09:27:44.928Z,95485.92
2019-04-05T09:30:16.917Z,95476.84
2019-04-05T09:32:48.732Z,95480.27
2019-04-05T09:35:20.471Z,95473.11
2019-04-05T09:37:52.213Z,95465.63
2019-04-05T09:40:24.124Z,95468.27
2019-04-05T09:42:55.960Z,95465.29
2019-04-05T09:45:27.903Z,95469.57
2019-04-05T09:48:00.046Z,95472.54
2019-04-05T09:50:32.172Z,95463.25
2019-04-05T09:53:03.964Z,95463.45
2019-04-05T09:55:35.857Z,95465.41
2019-04-05T09:58:10.059Z,95468.36
2019-04-05T10:00:41.522Z,95463.80
2019-04-05T10:03:13.319Z,95469.02
2019-04-05T10:05:45.053Z,95466.73
2019-04-05T10:08:16.780Z,95465.41
2019-04-05T10:10:48.784Z,95470.66
2019-04-05T10:13:20.853Z,95459.89
2019-04-05T10:15:52.666Z,95454.65
2019-04-05T10:18:24.392Z,95458.88
2019-04-05T10:20:56.231Z,95462.80
2019-04-05T10:23:28.017Z,95457.89
2019-04-05T10:25:59.933Z,95453.48
2019-04-05T10:28:31.667Z,95450.08
2019-04-05T10:31:03.772Z,95445.17
2019-04-05T10:33:35.481Z,95444.98
2019-04-05T10:36:07.300Z,95446.92
2019-04-05T10:38:39.389Z,95441.07
2019-04-05T10:41:11.820Z,95448.73
2019-04-05T10:43:44.303Z,95443.66
2019-04-05T10:46:16.050Z,95439.57
2019-04-05T10:48:47.775Z,95438.94
2019-04-05T10:51:19.587Z,95439.75
2019-04-05T10:53:51.319Z,95433.05
2019-04-05T10:56:23.361Z,95429.45
2019-04-05T10:58:55.167Z,95426.83
2019-04-05T11:01:28.045Z,95423.16
2019-04-05T11:03:59.770Z,95422.09
2019-04-05T11:06:31.553Z,95415.36
2019-04-05T11:09:04.287Z,95420.75
2019-04-05T11:11:36.344Z,95419.41
2019-04-05T11:14:14.066Z,95425.43
2019-04-05T11:16:41.724Z,95423.30
2019-04-05T11:19:13.898Z,95428.21
2019-04-05T11:21:47.859Z,95424.61
2019-04-05T11:24:19.083Z,95423.30
2019-04-05T11:26:51.858Z,95423.27
2019-04-05T11:29:23.591Z,95424.94
2019-04-05T11:31:57.459Z,95423.66
2019-04-05T11:34:28.897Z,95426.09
2019-04-05T11:37:03.032Z,95425.95
2019-04-05T11:39:34.958Z,95425.92
2019-04-05T11:42:06.939Z,95416.07
2019-04-05T11:44:41.574Z,95419.17
2019-04-05T11:47:13.538Z,95412.76
2019-04-05T11:49:48.311Z,95420.91
2019-04-05T11:52:20.256Z,95418.00
2019-04-05T11:54:52.355Z,95413.41
2019-04-05T11:57:24.114Z,95414.89
2019-04-05T11:59:55.914Z,95413.41
2019-04-05T12:02:36.347Z,95419.63
2019-04-05T12:05:09.123Z,95417.38
2019-04-05T12:07:40.840Z,95424.91
2019-04-05T12:10:13.176Z,95418.36
2019-04-05T12:12:44.969Z,95420.94
2019-04-05T12:15:17.153Z,95421.59
2019-04-05T12:17:48.875Z,95424.87
2019-04-05T12:20:20.838Z,95412.11
2019-04-05T12:22:53.620Z,95412.93
2019-04-05T12:25:25.418Z,95405.15
2019-04-05T12:28:06.335Z,95403.92
2019-04-05T12:30:31.251Z,95407.69
2019-04-05T12:33:13.191Z,95406.91
2019-04-05T12:35:37.712Z,95405.41
2019-04-05T12:38:09.676Z,95396.86
2019-04-05T12:40:41.426Z,95399.67
2019-04-05T12:43:14.277Z,95396.16
2019-04-05T12:45:46.221Z,95391.13
2019-04-05T12:48:17.958Z,95389.72
2019-04-05T12:51:00.552Z,95385.19
2019-04-05T12:53:26.241Z,95383.02
2019-04-05T12:55:57.092Z,95383.02
2019-04-05T12:58:29.170Z,95385.22
2019-04-05T13:01:00.895Z,95378.17
2019-04-05T13:03:32.786Z,95384.72
2019-04-05T13:06:04.788Z,95380.47
2019-04-05T13:08:36.514Z,95386.63
2019-04-05T13:11:08.332Z,95379.80
2019-04-05T13:13:40.205Z,95383.42
2019-04-05T13:16:12.151Z,95385.05
2019-04-05T13:18:43.903Z,95374.13
2019-04-05T13:21:16.654Z,95376.42
2019-04-05T13:23:48.404Z,95371.03
2019-04-05T13:26:20.115Z,95372.34
2019-04-05T13:28:51.846Z,95361.98
2019-04-05T13:31:23.573Z,95366.39
2019-04-05T13:33:55.703Z,95368.42
2019-04-05T13:36:27.374Z,95367.91
2019-04-05T13:39:00.385Z,95360.66
2019-04-05T13:41:34.099Z,95361.97
2019-04-05T13:44:06.136Z,95355.59
2019-04-05T13:46:39.117Z,95359.94
2019-04-05T13:49:11.177Z,95357.49
2019-04-05T13:51:43.959Z,95351.59
2019-04-05T13:54:15.714Z,95349.78
2019-04-05T13:56:47.640Z,95348.10
2019-04-05T13:59:19.500Z,95346.18
2019-04-05T14:01:51.603Z,95353.73
2019-04-05T14:04:23.474Z,95354.72
2019-04-05T14:06:55.356Z,95346.25
2019-04-05T14:09:27.077Z,95347.19
2019-04-05T14:11:58.863Z,95345.81
2019-04-05T14:14:30.739Z,95340.72
2019-04-05T14:17:02.523Z,95339.53
2019-04-05T14:19:34.500Z,95339.19
2019-04-05T14:22:08.984Z,95336.58
2019-04-05T14:24:39.931Z,95341.23
2019-04-05T14:27:11.807Z,95345.21
2019-04-05T14:29:43.873Z,95343.03
2019-04-05T14:32:21.301Z,95340.89
2019-04-05T14:34:49.548Z,95340.89
2019-04-05T14:37:24.812Z,95337.28
2019-04-05T14:39:54.778Z,95341.72
2019-04-05T14:42:29.671Z,95337.03
2019-04-05T14:45:01.630Z,95338.71
2019-04-05T14:47:33.707Z,95339.97
2019-04-05T14:50:07.161Z,95341.95
2019-04-05T14:52:40.117Z,95338.98
2019-04-05T14:55:11.977Z,95347.02
2019-04-05T14:57:43.772Z,95349.95
2019-04-05T15:00:17.403Z,95334.02
2019-04-05T15:02:49.424Z,95327.52
2019-04-05T15:05:21.547Z,95323.91
2019-04-05T15:07:54.971Z,95317.75
2019-04-05T15:10:27.264Z,95313.72
2019-04-05T15:13:00.383Z,95314.91
2019-04-05T15:15:32.279Z,95312.02
2019-04-05T15:18:04.005Z,95319.83
2019-04-05T15:20:35.724Z,95321.19
2019-04-05T15:23:09.529Z,95323.09
2019-04-05T15:25:41.115Z,95327.02
2019-04-05T15:28:12.943Z,95325.44
2019-04-05T15:30:44.724Z,95327.62
2019-04-05T15:33:16.439Z,95328.43
2019-04-05T15:35:48.842Z,95324.80
2019-04-05T15:38:20.856Z,95320.20
2019-04-05T15:40:52.926Z,95317.45
2019-04-05T15:43:24.649Z,95310.45
2019-04-05T15:45:56.409Z,95308.38
2019-04-05T15:48:28.344Z,95317.34
2019-04-05T15:51:00.357Z,95311.34
2019-04-05T15:53:32.674Z,95323.41
2019-04-05T15:56:04.930Z,95315.22
2019-04-05T15:58:37.672Z,95319.38
2019-04-05T16:01:10.262Z,95319.53
2019-04-05T16:03:42.127Z,95317.23
2019-04-05T16:06:14.241Z,95317.73
2019-04-05T16:08:46.053Z,95324.38
2019-04-05T16:11:17.871Z,95324.55
2019-04-05T16:13:49.636Z,95323.33
2019-04-05T16:16:21.370Z,95320.87
2019-04-05T16:18:53.469Z,95329.73
2019-04-05T16:21:25.415Z,95330.61
2019-04-05T16:23:57.217Z,95333.77
2019-04-05T16:26:29.121Z,95339.51
2019-04-05T16:29:01.248Z,95341.66
2019-04-05T16:31:33.155Z,95346.06
2019-04-05T16:34:04.859Z,95350.31
2019-04-05T16:36:36.600Z,95349.52
2019-04-05T16:39:13.393Z,95347.69
2019-04-05T16:41:45.202Z,95346.18
2019-04-05T16:44:16.961Z,95349.66
2019-04-05T16:46:49.004Z,95350.01
2019-04-05T16:49:21.050Z,95349.14
2019-04-05T16:51:52.863Z,95351.05
2019-04-05T16:54:24.898Z,95349.73
2019-04-05T16:56:56.719Z,95351.91
2019-04-05T16:59:28.504Z,95355.91
2019-04-05T17:02:01.443Z,95358.36
2019-04-05T17:04:33.260Z,95356.83
2019-04-05T17:07:06.258Z,95363.40
2019-04-05T17:09:38.048Z,95363.89
2019-04-05T17:12:09.963Z,95359.95
2019-04-05T17:14:42.352Z,95360.33
2019-04-05T17:17:14.097Z,95362.91
2019-04-05T17:19:45.878Z,95366.87
2019-04-05T17:22:17.915Z,95368.52
2019-04-05T17:24:49.971Z,95364.58
2019-04-05T17:27:21.771Z,95370.14
2019-04-05T17:29:53.508Z,95360.67
2019-04-05T17:32:25.246Z,95366.56
2019-04-05T17:34:56.999Z,95362.14
2019-04-05T17:37:28.823Z,95362.62
2019-04-05T17:40:00.816Z,95360.01
2019-04-05T17:42:34.785Z,95369.17
2019-04-05T17:45:07.667Z,95368.85
2019-04-05T17:47:39.629Z,95368.23
2019-04-05T17:53:13.187Z,95376.11
2019-04-05T17:55:42.944Z,95380.04
2019-04-05T17:58:15.518Z,95376.60
2019-04-05T18:00:47.483Z,95379.72
2019-04-05T18:03:19.274Z,95380.09
2019-04-05T18:05:51.013Z,95380.75
2019-04-05T18:08:23.091Z,95373.87
2019-04-05T18:10:54.821Z,95386.52
2019-04-05T18:13:26.549Z,95396.84
2019-04-05T18:15:58.298Z,95397.83
2019-04-05T18:18:30.042Z,95397.20
2019-04-05T18:21:01.841Z,95396.59
2019-04-05T18:23:33.569Z,95405.89
2019-04-05T18:26:05.530Z,95405.27
2019-04-05T18:28:37.354Z,95398.23
2019-04-05T18:31:09.224Z,95401.22
2019-04-05T18:33:41.043Z,95405.48
2019-04-05T18:36:12.885Z,95410.11
2019-04-05T18:38:45.271Z,95410.47
2019-04-05T18:41:17.079Z,95409.53
2019-04-05T18:43:49.192Z,95419.22
2019-04-05T18:46:21.889Z,95423.53
2019-04-05T18:48:53.622Z,95421.63
2019-04-05T18:51:25.714Z,95422.13
2019-04-05T18:53:58.104Z,95423.30
2019-04-05T18:56:29.900Z,95420.52
2019-04-05T18:59:01.886Z,95425.28
2019-04-05T19:01:33.619Z,95427.11
2019-04-05T19:04:05.786Z,95426.94
2019-04-05T19:06:37.531Z,95430.37
2019-04-05T19:09:11.906Z,95429.39
2019-04-05T19:11:43.215Z,95423.67
2019-04-05T19:14:14.944Z,95429.39
2019-04-05T19:16:46.708Z,95430.07
2019-04-05T19:19:18.812Z,95423.39
2019-04-05T19:21:50.618Z,95422.08
2019-04-05T19:24:22.371Z,95423.05
2019-04-05T19:26:54.096Z,95425.70
2019-04-05T19:29:26.805Z,95423.92
2019-04-05T19:49:53.165Z,95427.41
2019-04-05T19:52:25.957Z,95432.12
2019-04-05T19:54:57.698Z,95421.02
2019-04-05T19:57:29.695Z,95420.37
2019-04-05T20:00:01.507Z,95415.80
2019-04-05T20:02:33.347Z,95416.92
2019-04-05T20:05:05.913Z,95420.03
2019-04-05T20:07:37.649Z,95424.55
2019-04-05T20:10:09.650Z,95421.59
2019-04-05T20:12:41.405Z,95428.26
2019-04-05T20:15:13.466Z,95434.59
2019-04-05T20:17:45.283Z,95432.10
2019-04-05T20:20:17.289Z,95435.18
2019-04-05T20:22:49.016Z,95440.02
2019-04-05T20:25:20.765Z,95435.43
2019-04-05T20:27:52.512Z,95441.26
2019-04-05T20:30:24.433Z,95445.26
2019-04-05T20:32:56.186Z,95449.02
2019-04-05T20:35:27.985Z,95451.42
2019-04-05T20:37:59.741Z,95452.20
2019-04-05T20:40:31.492Z,95448.62
2019-04-05T20:43:03.221Z,95444.71
2019-04-05T20:45:35.066Z,95442.06
2019-04-05T20:48:06.943Z,95448.75
2019-04-05T20:50:39.647Z,95443.77
2019-04-05T20:53:11.512Z,95444.38
2019-04-05T20:55:43.199Z,95447.95
2019-04-05T20:58:14.939Z,95450.73
2019-04-05T21:00:46.691Z,95446.95
2019-04-05T21:03:18.715Z,95455.52
2019-04-05T21:05:50.531Z,95455.78
2019-04-05T21:08:22.341Z,95455.11
2019-04-05T21:10:54.247Z,95451.80
2019-04-05T21:13:26.137Z,95455.01
2019-04-05T21:15:57.966Z,95452.33
2019-04-05T21:18:29.917Z,95452.28
2019-04-05T21:21:01.907Z,95460.00
2019-04-05T21:23:33.802Z,95453.50
2019-04-05T21:26:05.761Z,95454.48
2019-04-05T21:28:37.563Z,95453.86
2019-04-05T21:31:09.297Z,95465.84
2019-04-05T21:33:42.063Z,95464.38
2019-04-05T21:36:14.096Z,95470.34
2019-04-05T21:38:45.890Z,95476.20
2019-04-05T21:41:17.630Z,95469.84
2019-04-05T21:43:49.364Z,95474.36
2019-04-05T21:46:21.122Z,95467.69
2019-04-05T21:48:52.849Z,95467.86
2019-04-05T21:51:24.781Z,95478.46
2019-04-05T21:53:56.740Z,95474.70
2019-04-05T21:56:28.516Z,95486.13
2019-04-05T21:59:00.259Z,95484.96
2019-04-05T22:01:32.100Z,95475.61
2019-04-05T22:04:04.593Z,95483.09
2019-04-05T22:06:36.464Z,95477.27
2019-04-05T22:09:10.126Z,95476.48
2019-04-05T22:11:42.203Z,95474.76
2019-04-05T22:14:14.009Z,95474.52
2019-04-05T22:16:45.899Z,95479.55
2019-04-05T22:19:17.616Z,95474.92
2019-04-05T22:21:49.356Z,95478.72
2019-04-05T22:24:21.102Z,95482.53
2019-04-05T22:26:52.897Z,95486.58
2019-04-05T22:29:26.211Z,95483.78
2019-04-05T22:31:58.032Z,95480.07
2019-04-05T22:34:29.730Z,95486.52
2019-04-05T22:37:01.474Z,95486.63
2019-04-05T22:39:33.371Z,95483.44
2019-04-05T22:42:05.191Z,95487.25
2019-04-05T22:44:38.964Z,95482.30
2019-04-05T22:47:12.005Z,95482.95
2019-04-05T22:49:43.801Z,95478.62
2019-04-05T22:52:15.535Z,95480.98
2019-04-05T22:54:47.256Z,95487.59
2019-04-05T22:57:19.065Z,95483.31
2019-04-05T22:59:50.875Z,95490.19
2019-04-05T23:02:22.750Z,95485.30
2019-04-05T23:04:54.498Z,95492.82
2019-04-05T23:07:26.512Z,95482.63
2019-04-05T23:09:58.318Z,95489.95
2019-04-05T23:12:30.498Z,95489.70
2019-04-05T23:15:02.218Z,95493.81
2019-04-05T23:17:34.378Z,95492.31
2019-04-05T23:20:07.095Z,95497.41
2019-04-05T23:22:39.212Z,95501.39
2019-04-05T23:25:21.502Z,95501.15
2019-04-05T23:27:45.562Z,95507.13
2019-04-05T23:30:18.907Z,95508.11
2019-04-05T23:32:50.921Z,95504.08
2019-04-05T23:35:22.656Z,95512.57
2019-04-05T23:37:54.389Z,95509.31
2019-04-05T23:40:26.518Z,95510.95
2019-04-05T23:42:58.402Z,95505.08
2019-04-05T23:45:30.105Z,95509.59
2019-04-05T23:48:01.871Z,95494.30
2019-04-05T23:50:33.610Z,95505.09
2019-04-05T23:53:05.622Z,95494.57
2019-04-05T23:55:37.373Z,95494.19
2019-04-05T23:58:09.568Z,95496.22
